ENFB/FBU METAR and TAF weather

Enter ICAO airport designator
Station Type Date Time Source
ENFB METAR 2018/01/22 19:50 UTC NOAA

ENFB 221950Z AUTO 17030KT //// BKN007/// OVC034/// 07/06 Q0997 W///S6


Station Type Date Time Source
ENFB Decoded METAR 2018/01/22 19:50 UTC NOAA

Oslo / Fornebu, Norway (ENFB) 59-54N 010-38E 17M
Jan 22, 2018 - 02:50 PM EST / 2018.01.22 1950 UTC
Wind: from the S (170 degrees) at 35 MPH (30 KT):0
Sky conditions: overcast
Temperature: 44 F (7 C)
Dew Point: 42 F (6 C)
Relative Humidity: 93%
Pressure (altimeter): 29.44 in. Hg (0997 hPa)
ob: ENFB 221950Z AUTO 17030KT //// BKN007/// OVC034/// 07/06 Q0997 W///S6
cycle: 20

Station Type Date Time Source
ENFB TAF UTC NOAA

Error!


Example: see airport list